createdAt,value
2019-05-20T00:02:43.964Z,12.40
2019-05-20T00:05:30.198Z,12.53
2019-05-20T00:08:16.430Z,13.80
2019-05-20T00:11:02.528Z,13.23
2019-05-20T00:13:48.733Z,12.97
2019-05-20T00:16:34.899Z,14.23
2019-05-20T00:19:20.844Z,13.23
2019-05-20T00:22:07.135Z,13.23
2019-05-20T00:24:53.305Z,13.10
2019-05-20T00:27:39.383Z,14.70
2019-05-20T00:30:25.805Z,13.90
2019-05-20T00:33:11.638Z,13.83
2019-05-20T00:35:57.834Z,13.30
2019-05-20T00:38:46.780Z,13.57
2019-05-20T00:41:32.754Z,13.27
2019-05-20T00:44:20.364Z,14.63
2019-05-20T00:47:06.679Z,15.67
2019-05-20T00:49:54.918Z,16.33
2019-05-20T00:52:40.980Z,16.00
2019-05-20T00:55:28.694Z,16.93
2019-05-20T00:58:14.733Z,15.47
2019-05-20T01:01:00.790Z,14.23
2019-05-20T01:03:47.031Z,16.40
2019-05-20T01:06:33.084Z,15.80
2019-05-20T01:09:19.150Z,15.37
2019-05-20T01:12:05.510Z,15.60
2019-05-20T01:14:51.500Z,16.00
2019-05-20T01:17:37.675Z,16.73
2019-05-20T01:20:23.999Z,15.87
2019-05-20T01:23:09.970Z,16.93
2019-05-20T01:25:56.165Z,14.67
2019-05-20T01:28:42.260Z,15.73
2019-05-20T01:31:28.349Z,18.23
2019-05-20T01:34:14.614Z,17.23
2019-05-20T01:37:01.176Z,15.70
2019-05-20T01:39:47.388Z,16.43
2019-05-20T01:42:33.606Z,16.30
2019-05-20T01:45:19.834Z,16.53
2019-05-20T01:48:05.881Z,16.77
2019-05-20T01:50:52.151Z,19.10
2019-05-20T01:53:38.240Z,18.27
2019-05-20T01:56:24.561Z,18.60
2019-05-20T01:59:10.510Z,16.90
2019-05-20T02:01:56.623Z,18.87
2019-05-20T02:04:42.952Z,19.30
2019-05-20T02:07:29.136Z,18.13
2019-05-20T02:10:16.118Z,19.10
2019-05-20T02:13:02.495Z,20.53
2019-05-20T02:15:55.612Z,19.27
2019-05-20T02:18:42.282Z,19.90
2019-05-20T02:21:28.846Z,19.83
2019-05-20T02:24:15.157Z,18.10
2019-05-20T02:27:01.215Z,21.63
2019-05-20T02:29:47.200Z,21.20
2019-05-20T02:32:33.546Z,19.57
2019-05-20T02:35:19.570Z,20.87
2019-05-20T02:38:05.796Z,20.93
2019-05-20T02:40:52.001Z,19.73
2019-05-20T02:43:38.239Z,19.80
2019-05-20T02:46:24.328Z,20.83
2019-05-20T02:49:10.506Z,20.03
2019-05-20T02:51:56.709Z,19.20
2019-05-20T02:54:42.900Z,20.37
2019-05-20T02:57:29.076Z,21.53
2019-05-20T03:00:16.446Z,21.10
2019-05-20T03:03:02.772Z,21.00
2019-05-20T03:05:48.661Z,21.87
2019-05-20T03:08:34.915Z,23.63
2019-05-20T03:11:21.287Z,25.57
2019-05-20T03:14:07.417Z,23.30
2019-05-20T03:16:53.717Z,23.47
2019-05-20T03:19:40.030Z,22.10
2019-05-20T03:22:26.047Z,23.60
2019-05-20T03:25:13.640Z,22.87
2019-05-20T03:28:00.191Z,23.23
2019-05-20T03:30:46.288Z,22.50
2019-05-20T03:33:32.667Z,24.57
2019-05-20T03:36:18.907Z,24.37
2019-05-20T03:39:05.624Z,24.70
2019-05-20T03:41:51.795Z,23.10
2019-05-20T03:44:37.873Z,24.37
2019-05-20T03:47:23.966Z,24.40
2019-05-20T03:50:10.138Z,24.20
2019-05-20T03:52:56.288Z,25.47
2019-05-20T03:55:43.724Z,24.87
2019-05-20T03:58:30.109Z,23.33
2019-05-20T04:01:16.181Z,26.37
2019-05-20T04:04:02.291Z,25.40
2019-05-20T04:06:48.865Z,25.90
2019-05-20T04:09:34.972Z,24.87
2019-05-20T04:12:21.204Z,25.03
2019-05-20T04:15:07.713Z,26.20
2019-05-20T04:17:53.651Z,24.53
2019-05-20T04:20:39.830Z,25.03
2019-05-20T04:23:26.029Z,25.80
2019-05-20T04:26:12.281Z,26.57
2019-05-20T04:28:58.242Z,24.80
2019-05-20T04:31:44.296Z,24.17
2019-05-20T04:34:30.497Z,22.13
2019-05-20T04:37:16.764Z,23.33
2019-05-20T04:40:02.831Z,24.43
2019-05-20T04:42:49.027Z,22.93
2019-05-20T04:45:35.262Z,23.57
2019-05-20T04:48:21.329Z,22.83
2019-05-20T04:51:07.562Z,21.90
2019-05-20T04:53:53.665Z,21.97
2019-05-20T04:56:39.766Z,22.27
2019-05-20T04:59:26.150Z,23.57
2019-05-20T05:02:12.052Z,23.23
2019-05-20T05:04:58.040Z,23.33
2019-05-20T05:07:44.384Z,21.73
2019-05-20T05:10:30.520Z,21.93
2019-05-20T05:13:16.914Z,21.80
2019-05-20T05:16:02.990Z,23.03
2019-05-20T05:18:49.240Z,23.30
2019-05-20T05:21:35.254Z,22.77
2019-05-20T05:24:21.367Z,22.53
2019-05-20T05:27:07.345Z,21.77
2019-05-20T05:29:53.647Z,22.43
2019-05-20T05:32:42.715Z,23.30
2019-05-20T05:35:28.839Z,22.93
2019-05-20T05:38:15.103Z,22.73
2019-05-20T05:41:01.007Z,23.77
2019-05-20T05:43:47.151Z,24.03
2019-05-20T05:46:33.426Z,23.57
2019-05-20T05:49:19.540Z,22.87
2019-05-20T05:52:05.619Z,23.17
2019-05-20T05:54:51.875Z,23.93
2019-05-20T05:57:37.961Z,23.30
2019-05-20T06:00:24.183Z,24.50
2019-05-20T06:03:10.371Z,22.13
2019-05-20T06:06:10.810Z,23.30
2019-05-20T06:08:44.566Z,21.60
2019-05-20T06:11:30.782Z,21.10
2019-05-20T06:14:16.989Z,21.60
2019-05-20T06:17:03.158Z,20.97
2019-05-20T06:19:49.324Z,21.70
2019-05-20T06:22:35.403Z,22.27
2019-05-20T06:25:21.700Z,20.77
2019-05-20T06:28:07.667Z,22.47
2019-05-20T06:30:53.723Z,21.80
2019-05-20T06:33:40.040Z,22.70
2019-05-20T06:36:27.292Z,20.53
2019-05-20T06:39:14.151Z,21.77
2019-05-20T06:42:00.598Z,21.13
2019-05-20T06:44:52.546Z,22.13
2019-05-20T06:47:34.795Z,20.60
2019-05-20T06:50:21.039Z,20.97
2019-05-20T06:53:07.061Z,20.67
2019-05-20T06:55:53.185Z,21.07
2019-05-20T06:58:39.607Z,20.57
2019-05-20T07:01:25.560Z,20.43
2019-05-20T07:04:11.745Z,21.83
2019-05-20T07:06:57.759Z,21.93
2019-05-20T07:09:43.980Z,22.83
2019-05-20T07:12:40.431Z,22.40
2019-05-20T07:15:19.015Z,24.20
2019-05-20T07:18:04.867Z,25.07
2019-05-20T07:20:51.066Z,24.03
2019-05-20T07:23:37.081Z,22.97
2019-05-20T07:26:23.195Z,24.10
2019-05-20T07:29:09.606Z,24.40
2019-05-20T07:31:55.453Z,24.60
2019-05-20T07:34:41.641Z,24.70
2019-05-20T07:37:27.937Z,24.07
2019-05-20T07:40:17.636Z,25.63
2019-05-20T07:43:04.273Z,25.67
2019-05-20T07:45:50.680Z,25.80
2019-05-20T07:48:37.738Z,26.20
2019-05-20T07:51:24.280Z,26.00
2019-05-20T07:54:11.358Z,27.50
2019-05-20T07:57:00.539Z,26.73
2019-05-20T07:59:48.652Z,26.70
2019-05-20T08:02:35.090Z,26.20
2019-05-20T08:05:21.204Z,27.33
2019-05-20T08:08:07.261Z,27.17
2019-05-20T08:10:53.461Z,27.30
2019-05-20T08:13:39.622Z,28.47
2019-05-20T08:16:25.739Z,28.30
2019-05-20T08:19:11.831Z,29.43
2019-05-20T08:21:58.117Z,29.63
2019-05-20T08:24:44.175Z,29.83
2019-05-20T08:27:30.361Z,29.07
2019-05-20T08:30:25.068Z,29.30
2019-05-20T08:33:11.226Z,29.80
2019-05-20T08:35:57.411Z,30.30
2019-05-20T08:38:43.666Z,31.67
2019-05-20T08:41:30.023Z,32.47
2019-05-20T08:44:16.106Z,30.90
2019-05-20T08:47:02.383Z,29.73
2019-05-20T08:49:48.332Z,30.83
2019-05-20T08:52:34.341Z,30.63
2019-05-20T08:55:20.596Z,30.03
2019-05-20T08:58:06.655Z,31.60
2019-05-20T09:00:52.765Z,30.63
2019-05-20T09:03:39.021Z,31.77
2019-05-20T09:06:25.216Z,31.40
2019-05-20T09:09:12.382Z,30.37
2019-05-20T09:11:59.106Z,30.60
2019-05-20T09:14:45.102Z,31.57
2019-05-20T09:17:31.333Z,29.80
2019-05-20T09:20:17.636Z,29.87
2019-05-20T09:23:03.775Z,30.93
2019-05-20T09:25:50.053Z,30.53
2019-05-20T09:28:36.108Z,31.43
2019-05-20T09:31:22.241Z,31.33
2019-05-20T09:34:08.338Z,33.33
2019-05-20T09:36:54.365Z,32.27
2019-05-20T09:39:40.519Z,31.57
2019-05-20T09:42:26.763Z,33.00
2019-05-20T09:45:12.940Z,31.67
2019-05-20T09:48:01.500Z,32.20
2019-05-20T09:50:47.710Z,30.93
2019-05-20T09:53:33.889Z,30.67
2019-05-20T09:56:19.945Z,30.17
2019-05-20T09:59:06.129Z,31.37
2019-05-20T10:01:52.327Z,27.70
2019-05-20T10:04:38.441Z,30.63
2019-05-20T10:07:24.620Z,29.40
2019-05-20T10:10:10.886Z,30.37
2019-05-20T10:12:56.806Z,29.27
2019-05-20T10:15:42.854Z,30.73
2019-05-20T10:18:37.341Z,29.80
2019-05-20T10:21:16.770Z,29.90
2019-05-20T10:24:03.085Z,29.07
2019-05-20T10:26:48.890Z,31.77
2019-05-20T10:29:35.195Z,31.57
2019-05-20T10:32:21.213Z,32.13
2019-05-20T10:35:08.763Z,31.97
2019-05-20T10:37:54.963Z,29.60
2019-05-20T10:40:41.060Z,32.47
2019-05-20T10:43:27.027Z,31.80
2019-05-20T10:46:13.326Z,29.57
2019-05-20T10:48:59.462Z,31.40
2019-05-20T10:51:45.676Z,32.13
2019-05-20T10:54:31.660Z,31.80
2019-05-20T10:57:17.606Z,31.70
2019-05-20T11:00:04.516Z,31.10
2019-05-20T11:02:51.013Z,30.53
2019-05-20T11:05:37.141Z,30.80
2019-05-20T11:08:23.667Z,31.30
2019-05-20T11:11:13.933Z,30.63
2019-05-20T11:13:58.029Z,31.53
2019-05-20T11:16:44.342Z,30.17
2019-05-20T11:19:30.950Z,30.13
2019-05-20T11:22:17.163Z,30.90
2019-05-20T11:25:03.804Z,31.80
2019-05-20T11:27:50.042Z,30.50
2019-05-20T11:30:36.145Z,31.20
2019-05-20T11:33:22.567Z,31.67
2019-05-20T11:36:09.943Z,30.23
2019-05-20T11:38:56.144Z,31.80
2019-05-20T11:41:57.899Z,29.83
2019-05-20T11:44:30.666Z,30.60
2019-05-20T11:47:17.126Z,32.00
2019-05-20T11:50:03.836Z,30.60
2019-05-20T11:52:50.059Z,30.53
2019-05-20T11:55:36.305Z,31.17
2019-05-20T11:58:22.985Z,30.37
2019-05-20T12:01:08.945Z,33.57
2019-05-20T12:03:55.104Z,30.97
2019-05-20T12:06:41.545Z,30.33
2019-05-20T12:09:27.584Z,31.43
2019-05-20T12:12:13.566Z,32.30
2019-05-20T12:14:59.607Z,31.93
2019-05-20T12:17:46.070Z,30.37
2019-05-20T12:20:32.565Z,30.60
2019-05-20T12:23:18.720Z,31.40
2019-05-20T12:26:05.377Z,29.87
2019-05-20T12:28:52.106Z,29.50
2019-05-20T12:31:38.364Z,31.60
2019-05-20T12:34:24.412Z,30.93
2019-05-20T12:37:10.712Z,30.23
2019-05-20T12:40:06.369Z,30.37
2019-05-20T12:42:45.333Z,33.03
2019-05-20T12:45:32.205Z,31.27
2019-05-20T12:48:18.805Z,32.93
2019-05-20T12:51:04.825Z,32.90
2019-05-20T12:53:51.006Z,32.73
2019-05-20T12:56:37.231Z,32.03
2019-05-20T12:59:23.445Z,33.47
2019-05-20T13:02:09.784Z,33.17
2019-05-20T13:04:55.809Z,33.97
2019-05-20T13:07:41.969Z,32.57
2019-05-20T13:10:31.848Z,33.43
2019-05-20T13:13:16.125Z,32.43
2019-05-20T13:16:03.972Z,32.87
2019-05-20T13:18:55.815Z,34.20
2019-05-20T13:21:38.785Z,33.80
2019-05-20T13:24:24.847Z,32.30
2019-05-20T13:27:10.910Z,33.70
2019-05-20T13:29:59.985Z,36.67
2019-05-20T13:32:46.085Z,33.47
2019-05-20T13:35:32.267Z,33.13
2019-05-20T13:38:18.525Z,35.33
2019-05-20T13:41:04.966Z,36.03
2019-05-20T13:43:51.165Z,34.23
2019-05-20T13:46:37.805Z,35.00
2019-05-20T13:49:23.965Z,34.80
2019-05-20T13:52:10.771Z,34.67
2019-05-20T13:54:57.466Z,33.87
2019-05-20T13:57:44.165Z,33.93
2019-05-20T14:00:30.865Z,34.70
2019-05-20T14:03:16.828Z,32.43
2019-05-20T14:06:03.248Z,33.27
2019-05-20T14:08:49.628Z,31.17
2019-05-20T14:11:35.647Z,35.17
2019-05-20T14:14:21.746Z,36.97
2019-05-20T14:17:07.985Z,34.77
2019-05-20T14:19:53.983Z,35.93
2019-05-20T14:22:40.446Z,36.33
2019-05-20T14:25:29.222Z,39.23
2019-05-20T14:28:15.068Z,37.70
2019-05-20T14:31:05.613Z,37.47
2019-05-20T14:33:49.704Z,37.33
2019-05-20T14:36:40.011Z,37.23
2019-05-20T14:39:24.005Z,35.23
2019-05-20T14:42:10.325Z,37.60
2019-05-20T14:44:56.304Z,37.37
2019-05-20T14:47:42.404Z,36.40
2019-05-20T14:50:28.910Z,36.60
2019-05-20T14:53:14.928Z,38.70
2019-05-20T14:56:01.125Z,38.17
2019-05-20T14:58:47.648Z,37.07
2019-05-20T15:01:33.768Z,36.37
2019-05-20T15:04:20.125Z,37.83
2019-05-20T15:07:06.065Z,37.37
2019-05-20T15:09:52.245Z,37.23
2019-05-20T15:12:38.368Z,37.57
2019-05-20T15:15:24.485Z,36.70
2019-05-20T15:18:11.096Z,36.77
2019-05-20T15:20:57.328Z,36.43
2019-05-20T15:23:43.373Z,35.27
2019-05-20T15:26:29.633Z,34.77
2019-05-20T15:29:27.437Z,36.57
2019-05-20T15:32:03.785Z,36.50
2019-05-20T15:34:49.927Z,37.37
2019-05-20T15:37:36.060Z,36.10
2019-05-20T15:40:24.389Z,35.03
2019-05-20T15:43:10.957Z,34.23
2019-05-20T15:45:57.344Z,33.40
2019-05-20T15:48:43.926Z,34.57
2019-05-20T15:51:30.246Z,33.00
2019-05-20T15:54:16.493Z,33.17
2019-05-20T15:57:02.694Z,33.20
2019-05-20T15:59:49.106Z,31.80
2019-05-20T16:02:35.845Z,31.97
2019-05-20T16:05:22.426Z,33.00
2019-05-20T16:08:08.547Z,32.13
2019-05-20T16:10:54.724Z,34.30
2019-05-20T16:13:40.724Z,33.60
2019-05-20T16:16:26.865Z,33.67
2019-05-20T16:19:12.964Z,31.57
2019-05-20T16:21:59.026Z,33.33
2019-05-20T16:24:45.636Z,34.20
2019-05-20T16:27:32.934Z,32.93
2019-05-20T16:30:19.524Z,35.23
2019-05-20T16:33:06.067Z,33.67
2019-05-20T16:35:52.204Z,34.43
2019-05-20T16:38:38.685Z,33.80
2019-05-20T16:41:25.226Z,33.03
2019-05-20T16:44:11.867Z,33.27
2019-05-20T16:46:57.986Z,33.87
2019-05-20T16:49:44.625Z,33.37
2019-05-20T16:52:30.784Z,32.97
2019-05-20T16:55:17.806Z,35.83
2019-05-20T16:58:04.384Z,6.50
2019-05-20T17:00:50.844Z,8.07
2019-05-20T17:03:37.118Z,7.17
2019-05-20T17:06:27.466Z,9.20
2019-05-20T17:09:12.046Z,9.37
2019-05-20T17:11:58.188Z,10.77
2019-05-20T17:14:44.546Z,12.63
2019-05-20T17:17:30.745Z,13.83
2019-05-20T17:20:17.175Z,16.23
2019-05-20T17:23:03.965Z,17.27
2019-05-20T17:25:50.934Z,21.13
2019-05-20T17:28:37.486Z,25.50
2019-05-20T17:31:23.665Z,19.00
2019-05-20T17:34:09.625Z,18.43
2019-05-20T17:36:55.924Z,18.90
2019-05-20T17:39:42.470Z,25.17
2019-05-20T17:42:28.473Z,26.90
2019-05-20T17:45:14.689Z,30.47
2019-05-20T17:48:01.110Z,30.27
2019-05-20T17:50:47.202Z,32.13
2019-05-20T17:53:33.679Z,36.70
2019-05-20T17:56:20.191Z,41.23
2019-05-20T17:59:06.368Z,57.27
2019-05-20T18:01:52.810Z,56.10
2019-05-20T18:04:39.034Z,31.77
2019-05-20T18:07:25.269Z,33.30
2019-05-20T18:10:12.078Z,30.20
2019-05-20T18:12:58.410Z,34.43
2019-05-20T18:15:44.912Z,36.50
2019-05-20T18:18:31.672Z,30.33
2019-05-20T18:21:18.631Z,21.00
2019-05-20T18:24:05.152Z,20.07
2019-05-20T18:26:51.751Z,17.77
2019-05-20T18:29:37.771Z,21.77
2019-05-20T18:32:24.230Z,26.80
2019-05-20T18:35:10.951Z,26.10
2019-05-20T18:37:57.950Z,24.43
2019-05-20T18:40:45.091Z,28.73
2019-05-20T18:43:31.513Z,32.27
2019-05-20T18:46:17.949Z,32.07
2019-05-20T18:49:04.570Z,30.63
2019-05-20T18:51:51.030Z,33.17
2019-05-20T18:54:37.831Z,34.97
2019-05-20T18:57:24.530Z,36.07
2019-05-20T19:00:13.379Z,37.77
2019-05-20T19:03:00.016Z,43.07
2019-05-20T19:05:46.892Z,45.00
2019-05-20T19:08:33.331Z,52.10
2019-05-20T19:11:20.073Z,53.70
2019-05-20T19:14:08.487Z,54.37
2019-05-20T19:16:55.757Z,55.07
2019-05-20T19:19:42.092Z,57.03
2019-05-20T19:22:28.732Z,57.63
2019-05-20T19:25:15.371Z,57.47
2019-05-20T19:28:02.236Z,54.43
2019-05-20T19:30:48.990Z,53.40
2019-05-20T19:33:35.691Z,53.73
2019-05-20T19:36:22.552Z,53.80
2019-05-20T19:39:09.132Z,51.17
2019-05-20T19:41:55.931Z,53.83
2019-05-20T19:44:42.613Z,52.23
2019-05-20T19:47:29.231Z,50.73
2019-05-20T19:50:15.931Z,50.43
2019-05-20T19:53:04.019Z,49.77
2019-05-20T19:55:50.450Z,49.97
2019-05-20T19:58:37.118Z,50.97
2019-05-20T20:01:24.010Z,45.40
2019-05-20T20:04:10.874Z,48.03
2019-05-20T20:06:57.651Z,46.40
2019-05-20T20:09:44.371Z,43.37
2019-05-20T20:12:31.037Z,44.50
2019-05-20T20:15:18.452Z,44.23
2019-05-20T20:18:04.751Z,45.33
2019-05-20T20:20:51.352Z,41.50
2019-05-20T20:23:39.136Z,41.60
2019-05-20T20:26:25.734Z,43.07
2019-05-20T20:29:11.750Z,40.87
2019-05-20T20:31:58.171Z,41.07
2019-05-20T20:34:44.390Z,43.40
2019-05-20T20:37:30.651Z,41.30
2019-05-20T20:40:16.877Z,43.23
2019-05-20T20:43:03.185Z,43.20
2019-05-20T20:45:49.271Z,39.17
2019-05-20T20:48:35.650Z,41.73
2019-05-20T20:51:21.931Z,41.30
2019-05-20T20:54:08.371Z,40.50
2019-05-20T20:56:54.571Z,38.27
2019-05-20T20:59:40.711Z,39.00
2019-05-20T21:02:26.630Z,39.57
2019-05-20T21:05:13.413Z,37.50
2019-05-20T21:07:59.830Z,38.80
2019-05-20T21:10:46.051Z,38.10
2019-05-20T21:13:32.310Z,36.80
2019-05-20T21:16:18.345Z,35.93
2019-05-20T21:19:04.777Z,34.40
2019-05-20T21:21:51.831Z,34.63
2019-05-20T21:24:38.230Z,33.33
2019-05-20T21:27:24.772Z,34.00
2019-05-20T21:30:11.355Z,32.53
2019-05-20T21:33:08.965Z,32.97
2019-05-20T21:35:46.879Z,31.63
2019-05-20T21:38:33.171Z,32.50
2019-05-20T21:41:19.318Z,34.60
2019-05-20T21:44:05.330Z,32.87
2019-05-20T21:46:52.706Z,32.80
2019-05-20T21:49:39.270Z,35.63
2019-05-20T21:52:25.712Z,33.77
2019-05-20T21:55:12.210Z,28.20
2019-05-20T21:57:58.508Z,34.90
2019-05-20T22:01:03.371Z,35.57
2019-05-20T22:03:49.730Z,32.47
2019-05-20T22:06:36.072Z,34.03
2019-05-20T22:09:22.253Z,34.10
2019-05-20T22:12:08.313Z,33.57
2019-05-20T22:14:54.350Z,33.17
2019-05-20T22:17:40.370Z,33.63
2019-05-20T22:20:26.710Z,34.60
2019-05-20T22:23:41.214Z,32.67
2019-05-20T22:26:27.211Z,32.07
2019-05-20T22:29:13.290Z,35.83
2019-05-20T22:31:59.530Z,33.27
2019-05-20T22:34:53.201Z,34.53
2019-05-20T22:37:33.812Z,38.83
2019-05-20T22:40:20.082Z,37.27
2019-05-20T22:43:06.830Z,36.20
2019-05-20T22:45:53.417Z,37.80
2019-05-20T22:48:39.710Z,40.57
2019-05-20T22:51:25.972Z,39.43
2019-05-20T22:54:12.085Z,37.23
2019-05-20T22:56:58.112Z,35.20
2019-05-20T22:59:44.490Z,39.53
2019-05-20T23:02:30.431Z,38.67
2019-05-20T23:05:16.776Z,39.50
2019-05-20T23:08:03.033Z,38.03
2019-05-20T23:10:49.052Z,41.43
2019-05-20T23:13:35.351Z,41.60
2019-05-20T23:16:21.530Z,42.60
2019-05-20T23:19:07.634Z,42.37
2019-05-20T23:21:54.192Z,40.97
2019-05-20T23:24:40.390Z,42.77
2019-05-20T23:27:26.412Z,41.47
2019-05-20T23:30:13.071Z,42.77
2019-05-20T23:32:59.390Z,41.60
2019-05-20T23:35:45.674Z,41.53
2019-05-20T23:38:31.951Z,42.67
2019-05-20T23:41:17.991Z,40.53
2019-05-20T23:44:04.170Z,38.13
2019-05-20T23:46:50.190Z,39.33
2019-05-20T23:49:36.330Z,38.93
2019-05-20T23:52:22.373Z,37.90
2019-05-20T23:55:09.071Z,37.10
2019-05-20T23:57:55.233Z,38.73
